Antonios — SY8410 — position and weather

sailwx.info

Track history (hours):
 
Tides and Currents Weather Stations Pressure Air Temp Water Temp Dewpoint Dewpoint Depression Visibility Wind Speed Wind Dir Waves Ship Positions

Antonios

Last reported at 2017-May-10 14:01 UTC. Time now 2017-May-26 16:52 UTC.
Position N 37°11' E 025°44'.
Warning: this ship's position is 16 days out of date.

Length 57 m; draft 4 m.

Type: Tanker. MMSI: 239191300.

Date/timePositionNaut miles runAvg speedWind from/ knotsBaromVisibWave heightAir tempDewpointWater temp
2017-May-10 14:01N 37°11' E 025°44'810.0
2017-May-10 13:13N 37°13' E 025°34'210.4
2017-May-10 13:00N 37°13' E 025°32'510.0
2017-May-10 12:31N 37°14' E 025°26'5 9.8
2017-May-10 12:01N 37°15' E 025°20'5 9.7
2017-May-10 11:31N 37°16' E 025°13'5 9.7
2017-May-10 11:00N 37°17' E 025°08'510.0
2017-May-10 10:30N 37°19' E 025°01'510.2
2017-May-10 10:01N 37°20' E 024°55'5 9.9
2017-May-10 09:31N 37°22' E 024°49'52 9.7
2017-May-10 04:09N 37°38' E 023°47'2 9.5
2017-May-10 03:59N 37°39' E 023°45'4 9.3
2017-May-10 03:31N 37°42' E 023°41'5 9.9
2017-May-10 03:00N 37°46' E 023°38'5 9.1
2017-May-10 02:31N 37°49' E 023°34'5 9.7
2017-May-10 02:00N 37°50' E 023°28'5 9.8
2017-May-10 01:31N 37°52' E 023°22'5 9.8
2017-May-10 01:00N 37°53' E 023°16'5 9.8
2017-May-10 00:31N 37°54' E 023°10'4 8.0
2017-May-10 00:00N 37°55' E 023°05'0 0.1
2017-May-09 23:30N 37°55' E 023°05'0 0.0
2017-May-09 22:57N 37°55' E 023°05'0 0.0
2017-May-09 22:31N 37°55' E 023°05'0 0.0
2017-May-09 22:01N 37°55' E 023°05'0 0.0
2017-May-09 21:27N 37°55' E 023°05'0 0.0
2017-May-09 20:57N 37°55' E 023°05'0 0.0
2017-May-09 20:31N 37°55' E 023°05'0 0.0
2017-May-09 20:00N 37°55' E 023°05'0 0.0
2017-May-09 19:30N 37°55' E 023°05'0 0.0
2017-May-09 18:59N 37°55' E 023°05'0 0.0
2017-May-09 18:30N 37°55' E 023°05'0 0.0
2017-May-09 18:00N 37°55' E 023°05'0 0.0
2017-May-09 17:30N 37°55' E 023°05'0 0.1
2017-May-09 17:01N 37°55' E 023°05'2 4.8
2017-May-09 16:31N 37°54' E 023°08'1 2.8
2017-May-09 16:01N 37°54' E 023°10'510.0
2017-May-09 15:30N 37°53' E 023°16'510.2
2017-May-09 15:01N 37°52' E 023°22'510.1
2017-May-09 14:31N 37°51' E 023°29'9 9.3
2017-May-09 13:30N 37°49' E 023°40'5 9.9
2017-May-09 13:00N 37°44' E 023°43'510.2
2017-May-09 12:30N 37°40' E 023°46'510.4
2017-May-09 12:00N 37°37' E 023°52'43 9.5
2017-May-09 07:28N 37°24' E 024°44'5 9.8
2017-May-09 07:01N 37°22' E 024°49'5 9.9
2017-May-09 06:30N 37°21' E 024°55'5 9.8
2017-May-09 06:01N 37°20' E 025°01'510.1
2017-May-09 05:31N 37°19' E 025°07'510.1
2017-May-09 05:01N 37°17' E 025°13'510.2
2017-May-09 04:31N 37°16' E 025°19'510.1
2017-May-09 04:01N 37°15' E 025°25'510.0
2017-May-09 03:31N 37°14' E 025°32'510.0
2017-May-09 03:00N 37°12' E 025°38'510.1
2017-May-09 02:31N 37°11' E 025°44'  
Track history (hours):
 
Tides and Currents Weather Stations Pressure Air Temp Water Temp Dewpoint Dewpoint Depression Visibility Wind Speed Wind Dir Waves Ship Positions

Antonios

Last reported at 2017-May-10 14:01 UTC. Time now 2017-May-26 16:52 UTC.
Position N 37°11' E 025°44'.
Warning: this ship's position is 16 days out of date.

Length 57 m; draft 4 m.

Type: Tanker. MMSI: 239191300.

Date/timePositionNaut miles runAvg speedWind from/ knotsBaromVisibWave heightAir tempDewpointWater temp
2017-May-10 14:01N 37°11' E 025°44'810.0
2017-May-10 13:13N 37°13' E 025°34'210.4
2017-May-10 13:00N 37°13' E 025°32'510.0
2017-May-10 12:31N 37°14' E 025°26'5 9.8
2017-May-10 12:01N 37°15' E 025°20'5 9.7
2017-May-10 11:31N 37°16' E 025°13'5 9.7
2017-May-10 11:00N 37°17' E 025°08'510.0
2017-May-10 10:30N 37°19' E 025°01'510.2
2017-May-10 10:01N 37°20' E 024°55'5 9.9
2017-May-10 09:31N 37°22' E 024°49'52 9.7
2017-May-10 04:09N 37°38' E 023°47'2 9.5
2017-May-10 03:59N 37°39' E 023°45'4 9.3
2017-May-10 03:31N 37°42' E 023°41'5 9.9
2017-May-10 03:00N 37°46' E 023°38'5 9.1
2017-May-10 02:31N 37°49' E 023°34'5 9.7
2017-May-10 02:00N 37°50' E 023°28'5 9.8
2017-May-10 01:31N 37°52' E 023°22'5 9.8
2017-May-10 01:00N 37°53' E 023°16'5 9.8
2017-May-10 00:31N 37°54' E 023°10'4 8.0
2017-May-10 00:00N 37°55' E 023°05'0 0.1
2017-May-09 23:30N 37°55' E 023°05'0 0.0
2017-May-09 22:57N 37°55' E 023°05'0 0.0
2017-May-09 22:31N 37°55' E 023°05'0 0.0
2017-May-09 22:01N 37°55' E 023°05'0 0.0
2017-May-09 21:27N 37°55' E 023°05'0 0.0
2017-May-09 20:57N 37°55' E 023°05'0 0.0
2017-May-09 20:31N 37°55' E 023°05'0 0.0
2017-May-09 20:00N 37°55' E 023°05'0 0.0
2017-May-09 19:30N 37°55' E 023°05'0 0.0
2017-May-09 18:59N 37°55' E 023°05'0 0.0
2017-May-09 18:30N 37°55' E 023°05'0 0.0
2017-May-09 18:00N 37°55' E 023°05'0 0.0
2017-May-09 17:30N 37°55' E 023°05'0 0.1
2017-May-09 17:01N 37°55' E 023°05'2 4.8
2017-May-09 16:31N 37°54' E 023°08'1 2.8
2017-May-09 16:01N 37°54' E 023°10'510.0
2017-May-09 15:30N 37°53' E 023°16'510.2
2017-May-09 15:01N 37°52' E 023°22'510.1
2017-May-09 14:31N 37°51' E 023°29'9 9.3
2017-May-09 13:30N 37°49' E 023°40'5 9.9
2017-May-09 13:00N 37°44' E 023°43'510.2
2017-May-09 12:30N 37°40' E 023°46'510.4
2017-May-09 12:00N 37°37' E 023°52'43 9.5
2017-May-09 07:28N 37°24' E 024°44'5 9.8
2017-May-09 07:01N 37°22' E 024°49'5 9.9
2017-May-09 06:30N 37°21' E 024°55'5 9.8
2017-May-09 06:01N 37°20' E 025°01'510.1
2017-May-09 05:31N 37°19' E 025°07'510.1
2017-May-09 05:01N 37°17' E 025°13'510.2
2017-May-09 04:31N 37°16' E 025°19'510.1
2017-May-09 04:01N 37°15' E 025°25'510.0
2017-May-09 03:31N 37°14' E 025°32'510.0
2017-May-09 03:00N 37°12' E 025°38'510.1
2017-May-09 02:31N 37°11' E 025°44'  

Dump ship's entire track history